Time;durP1;ratioP1;P1;durP2;ratioP2;P2;SDS_P1;SDS_P2;PMS_P1;PMS_P2;Temp;Humidity;BMP_temperature;BMP_pressure;BME280_temperature;BME280_humidity;BME280_pressure;Samples;Min_cycle;Max_cycle;Signal;HPM_P1;HPM_P2
2022/04/29 00:00:18;;;;;;;29.70;19.67;;;16.20;66.40;;;;;;5010409;28;20807;-69
2022/04/29 00:02:46;;;;;;;29.05;19.73;;;16.20;66.40;;;;;;5019525;28;20038;-69
2022/04/29 00:05:13;;;;;;;31.45;21.38;;;16.10;66.30;;;;;;5015737;28;20052;-69
2022/04/29 00:07:39;;;;;;;31.73;21.65;;;16.10;66.30;;;;;;5009997;28;20022;-69
2022/04/29 00:10:07;;;;;;;31.65;21.05;;;16.00;66.40;;;;;;5015864;28;20046;-69
2022/04/29 00:12:33;;;;;;;31.77;21.38;;;16.00;66.70;;;;;;5018176;28;20026;-69
2022/04/29 00:14:59;;;;;;;30.25;22.13;;;16.00;66.80;;;;;;5015935;28;20029;-69
2022/04/29 00:17:25;;;;;;;33.28;21.85;;;15.90;67.10;;;;;;5025761;28;20032;-69
2022/04/29 00:19:51;;;;;;;34.15;22.08;;;15.90;67.40;;;;;;5035031;28;20038;-69
2022/04/29 00:22:17;;;;;;;34.50;22.33;;;15.90;67.60;;;;;;5038443;28;20022;-69
2022/04/29 00:24:42;;;;;;;30.95;20.92;;;15.80;67.70;;;;;;5044437;28;20068;-69
2022/04/29 00:27:08;;;;;;;30.10;20.40;;;15.80;67.70;;;;;;5026478;28;20025;-69
2022/04/29 00:29:34;;;;;;;30.15;20.95;;;15.70;67.40;;;;;;5036273;28;20601;-69
2022/04/29 00:32:00;;;;;;;32.20;22.23;;;15.70;67.50;;;;;;5034137;28;20216;-69
2022/04/29 00:34:25;;;;;;;35.78;21.77;;;15.70;68.00;;;;;;5031190;28;20038;-69
2022/04/29 00:36:51;;;;;;;32.30;21.42;;;15.60;68.50;;;;;;5014850;28;20448;-69
2022/04/29 00:39:17;;;;;;;34.35;21.27;;;15.60;68.90;;;;;;5015024;28;20164;-69
2022/04/29 00:41:44;;;;;;;33.88;21.30;;;15.60;69.10;;;;;;5027080;28;20025;-69
2022/04/29 00:44:11;;;;;;;32.78;21.20;;;15.50;69.10;;;;;;5021837;28;20064;-69
2022/04/29 00:46:40;;;;;;;34.85;21.60;;;15.50;69.00;;;;;;5029197;28;20028;-69
2022/04/29 00:49:08;;;;;;;29.90;21.35;;;15.50;69.10;;;;;;5020396;28;20029;-68
2022/04/29 00:51:34;;;;;;;33.13;20.17;;;15.50;69.30;;;;;;5029464;28;20040;-69
2022/04/29 00:54:03;;;;;;;31.13;20.90;;;15.50;69.00;;;;;;5023372;28;20045;-69
2022/04/29 00:56:34;;;;;;;28.85;19.85;;;15.50;69.00;;;;;;5023283;28;20061;-69
2022/04/29 00:59:11;;;;;;;32.25;20.48;;;15.40;68.80;;;;;;5033027;28;20040;-69
2022/04/29 01:01:37;;;;;;;31.25;21.83;;;15.40;68.80;;;;;;5036717;28;20060;-69
2022/04/29 01:04:04;;;;;;;29.73;20.27;;;15.30;69.00;;;;;;5024041;28;20038;-69
2022/04/29 01:06:31;;;;;;;29.70;19.52;;;15.30;69.20;;;;;;5034852;28;20033;-69
2022/04/29 01:08:56;;;;;;;30.95;19.92;;;15.30;69.30;;;;;;5024402;28;20045;-69
2022/04/29 01:11:25;;;;;;;32.45;20.27;;;15.30;69.20;;;;;;5020513;28;20029;-69
2022/04/29 01:13:52;;;;;;;31.00;19.90;;;15.20;69.00;;;;;;5031396;28;20575;-69
2022/04/29 01:16:19;;;;;;;29.67;20.05;;;15.20;68.90;;;;;;5028921;28;20532;-69
2022/04/29 01:18:51;;;;;;;33.20;20.27;;;15.20;68.80;;;;;;5026650;28;20018;-69
2022/04/29 01:21:18;;;;;;;31.42;20.05;;;15.10;69.00;;;;;;5027102;28;20129;-69
2022/04/29 01:23:44;;;;;;;27.60;19.08;;;15.10;69.30;;;;;;5034881;28;20128;-69
2022/04/29 01:26:14;;;;;;;33.10;19.65;;;15.00;69.00;;;;;;5027013;28;20561;-69
2022/04/29 01:28:47;;;;;;;31.30;19.23;;;15.00;68.90;;;;;;5034876;28;20964;-69
2022/04/29 01:31:14;;;;;;;33.22;20.25;;;14.90;69.10;;;;;;5031228;28;20034;-69
2022/04/29 01:33:45;;;;;;;26.77;17.85;;;14.90;69.20;;;;;;5033324;28;20027;-69
2022/04/29 01:36:11;;;;;;;30.63;19.73;;;14.80;69.20;;;;;;5032169;28;20028;-69
2022/04/29 01:38:38;;;;;;;34.88;20.60;;;14.80;69.40;;;;;;5034721;28;20517;-69
2022/04/29 01:41:05;;;;;;;31.67;20.88;;;14.70;69.90;;;;;;5037268;28;20026;-69
2022/04/29 01:43:31;;;;;;;31.80;20.45;;;14.70;70.30;;;;;;5028867;28;20042;-69
2022/04/29 01:45:57;;;;;;;31.70;20.42;;;14.70;70.70;;;;;;5026345;28;20156;-69
2022/04/29 01:48:25;;;;;;;35.10;20.80;;;14.60;71.20;;;;;;5032009;28;20029;-69
2022/04/29 01:50:50;;;;;;;31.23;19.67;;;14.70;71.50;;;;;;5031172;28;20036;-69
2022/04/29 01:53:16;;;;;;;34.90;19.95;;;14.70;71.70;;;;;;5033406;28;20053;-69
2022/04/29 01:55:42;;;;;;;30.75;20.00;;;14.60;72.10;;;;;;5033386;28;20399;-69
2022/04/29 01:58:08;;;;;;;28.23;19.63;;;14.60;72.10;;;;;;5033203;28;20030;-69
2022/04/29 02:00:34;;;;;;;34.20;20.52;;;14.60;72.50;;;;;;5033667;28;20017;-69
2022/04/29 02:02:59;;;;;;;32.63;19.75;;;14.60;72.80;;;;;;5032746;28;20079;-69
2022/04/29 02:05:25;;;;;;;34.65;20.98;;;14.60;73.20;;;;;;5020197;28;20113;-69
2022/04/29 02:07:51;;;;;;;33.92;19.90;;;14.60;73.30;;;;;;5024963;28;20100;-69
2022/04/29 02:10:17;;;;;;;31.95;18.80;;;14.50;73.40;;;;;;5037764;28;20468;-69
2022/04/29 02:12:43;;;;;;;30.55;18.88;;;14.50;73.10;;;;;;5028967;28;20020;-69
2022/04/29 02:15:09;;;;;;;31.90;19.90;;;14.50;72.80;;;;;;5035837;28;20030;-69
2022/04/29 02:17:35;;;;;;;38.90;20.58;;;14.50;72.80;;;;;;5035381;28;20036;-69
2022/04/29 02:20:01;;;;;;;31.40;19.13;;;14.50;72.90;;;;;;5037439;28;20041;-69
2022/04/29 02:22:27;;;;;;;31.10;19.85;;;14.50;72.90;;;;;;5018707;28;20030;-69
2022/04/29 02:24:53;;;;;;;31.73;19.08;;;14.50;72.50;;;;;;5036727;28;20449;-69
2022/04/29 02:27:19;;;;;;;27.95;18.20;;;14.50;72.30;;;;;;5034797;28;20017;-69
2022/04/29 02:29:44;;;;;;;29.13;18.90;;;14.40;72.10;;;;;;5032032;28;20033;-69
2022/04/29 02:32:12;;;;;;;29.70;17.65;;;14.40;72.00;;;;;;5027294;28;20067;-69
2022/04/29 02:34:40;;;;;;;24.33;16.40;;;14.40;71.80;;;;;;5038615;28;20146;-69
2022/04/29 02:37:06;;;;;;;29.27;17.23;;;14.30;71.50;;;;;;5037425;28;20675;-69
2022/04/29 02:39:31;;;;;;;27.77;17.58;;;14.30;71.10;;;;;;5046465;28;20028;-69
2022/04/29 02:41:57;;;;;;;28.27;17.42;;;14.20;70.90;;;;;;5033669;28;20028;-69
2022/04/29 02:44:23;;;;;;;29.67;18.95;;;14.20;71.10;;;;;;5031253;28;20454;-69
2022/04/29 02:47:07;;;;;;;32.03;18.67;;;14.10;71.40;;;;;;5036145;28;20022;-69
2022/04/29 02:49:34;;;;;;;31.95;18.52;;;14.10;71.60;;;;;;5042137;28;20033;-69
2022/04/29 02:52:00;;;;;;;26.50;16.25;;;14.10;71.90;;;;;;5041764;28;20099;-69
2022/04/29 02:54:25;;;;;;;28.50;18.08;;;14.10;71.80;;;;;;5028596;28;20484;-69
2022/04/29 02:56:52;;;;;;;32.83;18.83;;;14.00;71.30;;;;;;5021171;28;20030;-69
2022/04/29 02:59:19;;;;;;;30.08;18.73;;;14.00;71.50;;;;;;5026486;28;20029;-69
2022/04/29 03:01:45;;;;;;;32.28;18.65;;;13.90;71.70;;;;;;5026901;28;20025;-69
2022/04/29 03:04:11;;;;;;;29.27;18.10;;;13.90;71.90;;;;;;5025832;28;20049;-69
2022/04/29 03:06:37;;;;;;;28.77;18.90;;;13.90;72.00;;;;;;5032466;28;20034;-69
2022/04/29 03:09:02;;;;;;;32.22;19.65;;;13.90;72.00;;;;;;5043494;28;21730;-69
2022/04/29 03:11:28;;;;;;;32.38;19.05;;;13.90;72.20;;;;;;5043352;28;20131;-69
2022/04/29 03:13:54;;;;;;;34.72;19.75;;;13.90;72.40;;;;;;5044283;28;20112;-69
2022/04/29 03:16:20;;;;;;;36.05;20.15;;;13.80;72.50;;;;;;5044419;28;20064;-69
2022/04/29 03:18:46;;;;;;;32.85;19.85;;;13.80;72.40;;;;;;5043422;28;20114;-69
2022/04/29 03:21:13;;;;;;;33.13;18.90;;;13.80;72.50;;;;;;5044019;28;20415;-69
2022/04/29 03:23:38;;;;;;;29.80;18.45;;;13.70;72.30;;;;;;5038805;28;20037;-69
2022/04/29 03:26:05;;;;;;;24.73;15.77;;;13.70;71.90;;;;;;5042460;28;20083;-69
2022/04/29 03:28:31;;;;;;;24.17;16.17;;;13.60;71.60;;;;;;5042668;28;20064;-69
2022/04/29 03:30:58;;;;;;;29.50;16.73;;;13.60;71.00;;;;;;5042967;28;20029;-69
2022/04/29 03:33:24;;;;;;;28.35;17.52;;;13.50;70.50;;;;;;5043645;28;20017;-69
2022/04/29 03:35:50;;;;;;;27.05;17.65;;;13.50;70.50;;;;;;5041336;28;20069;-69
2022/04/29 03:38:16;;;;;;;29.13;17.25;;;13.40;70.60;;;;;;5027475;28;20564;-69
2022/04/29 03:40:41;;;;;;;25.38;16.10;;;13.40;70.70;;;;;;5015987;28;20041;-69
2022/04/29 03:43:08;;;;;;;29.17;17.50;;;13.30;70.80;;;;;;5029809;28;20064;-69
2022/04/29 03:45:34;;;;;;;29.73;18.95;;;13.30;70.90;;;;;;5033358;28;20029;-69
2022/04/29 03:48:00;;;;;;;37.38;19.25;;;13.20;71.50;;;;;;5015319;28;20079;-69
2022/04/29 03:50:28;;;;;;;31.05;18.65;;;13.20;72.00;;;;;;5021056;28;20176;-69
2022/04/29 03:53:02;;;;;;;32.42;19.58;;;13.20;72.50;;;;;;5025847;28;20056;-69
2022/04/29 03:55:30;;;;;;;30.60;18.70;;;13.20;73.10;;;;;;5040116;28;20026;-69
2022/04/29 03:57:57;;;;;;;28.00;16.15;;;13.20;73.20;;;;;;5038310;28;20029;-69
2022/04/29 04:00:24;;;;;;;24.65;16.20;;;13.20;73.30;;;;;;5019167;28;20458;-69
2022/04/29 04:02:50;;;;;;;25.98;16.77;;;13.20;73.00;;;;;;5026409;28;20389;-69
2022/04/29 04:05:20;;;;;;;28.00;17.75;;;13.10;73.00;;;;;;5028505;28;20034;-69
2022/04/29 04:07:46;;;;;;;32.40;17.98;;;13.10;72.70;;;;;;5039223;28;20104;-69
2022/04/29 04:10:13;;;;;;;28.85;17.25;;;13.00;72.40;;;;;;5011575;28;20041;-69
2022/04/29 04:12:48;;;;;;;27.00;17.27;;;13.00;72.40;;;;;;5026262;28;20032;-69
2022/04/29 04:15:15;;;;;;;29.17;17.45;;;13.00;72.60;;;;;;5038621;28;20120;-69
2022/04/29 04:17:41;;;;;;;29.80;17.83;;;13.00;72.90;;;;;;5023117;28;20042;-69
2022/04/29 04:20:09;;;;;;;31.80;18.45;;;12.90;72.90;;;;;;5016547;28;20026;-69
2022/04/29 04:22:35;;;;;;;31.08;17.85;;;12.90;73.00;;;;;;5014244;28;20505;-69
2022/04/29 04:25:09;;;;;;;29.50;17.80;;;12.90;73.20;;;;;;5029468;28;20457;-69
2022/04/29 04:27:35;;;;;;;29.58;17.38;;;12.90;73.20;;;;;;5026922;28;20555;-69
2022/04/29 04:30:02;;;;;;;25.27;15.88;;;12.90;73.10;;;;;;5024856;28;20080;-69
2022/04/29 04:32:29;;;;;;;26.52;16.58;;;12.90;72.70;;;;;;5019153;28;20026;-69
2022/04/29 04:34:57;;;;;;;25.50;16.10;;;12.80;72.10;;;;;;5024531;28;21091;-69
2022/04/29 04:37:33;;;;;;;25.30;15.77;;;12.80;71.70;;;;;;5034960;28;20017;-70
2022/04/29 04:39:59;;;;;;;51.13;16.55;;;12.70;71.50;;;;;;5034167;28;20038;-69
2022/04/29 04:42:25;;;;;;;39.00;16.80;;;12.70;71.50;;;;;;5064837;28;20564;-68
2022/04/29 04:44:53;;;;;;;37.65;16.58;;;12.70;71.70;;;;;;5034215;28;20047;-69
2022/04/29 04:47:19;;;;;;;36.60;16.38;;;12.70;71.60;;;;;;5021183;28;20033;-69
2022/04/29 04:49:45;;;;;;;27.35;16.27;;;12.60;71.80;;;;;;5019366;28;20032;-69
2022/04/29 04:52:11;;;;;;;27.08;17.27;;;12.60;72.00;;;;;;5036345;28;20037;-69
2022/04/29 04:54:37;;;;;;;33.55;18.15;;;12.60;72.30;;;;;;5027720;28;20021;-69
2022/04/29 04:57:04;;;;;;;29.35;17.05;;;12.60;72.60;;;;;;5023118;28;20033;-69
2022/04/29 04:59:30;;;;;;;30.98;16.95;;;12.60;72.90;;;;;;5027520;28;20817;-71
2022/04/29 05:01:57;;;;;;;29.20;17.63;;;12.60;73.00;;;;;;5025197;28;20040;-70
2022/04/29 05:04:23;;;;;;;30.38;17.70;;;12.60;73.00;;;;;;5023893;28;20408;-68
2022/04/29 05:06:49;;;;;;;28.05;17.50;;;12.70;73.10;;;;;;5020639;28;20034;-69
2022/04/29 05:09:14;;;;;;;33.13;17.73;;;12.60;73.10;;;;;;5014182;28;20448;-69
2022/04/29 05:11:40;;;;;;;31.05;17.75;;;12.60;72.90;;;;;;5016827;28;20034;-69
2022/04/29 05:14:06;;;;;;;28.17;17.23;;;12.60;72.90;;;;;;5015735;28;20443;-70
2022/04/29 05:16:32;;;;;;;31.27;17.13;;;12.70;72.90;;;;;;5021602;28;20492;-69
2022/04/29 05:18:58;;;;;;;31.20;16.65;;;12.70;72.80;;;;;;5026139;28;20096;-70
2022/04/29 05:21:24;;;;;;;36.92;16.30;;;12.70;73.50;;;;;;5024469;28;20049;-70
2022/04/29 05:23:50;;;;;;;27.52;16.25;;;12.60;72.10;;;;;;5018904;28;20044;-71
2022/04/29 05:26:16;;;;;;;30.15;16.50;;;12.60;71.80;;;;;;5021198;28;20033;-71
2022/04/29 05:28:42;;;;;;;30.42;16.58;;;12.60;71.60;;;;;;5048173;28;20120;-70
2022/04/29 05:31:08;;;;;;;32.63;17.73;;;12.60;71.60;;;;;;5024572;28;20108;-72
2022/04/29 05:33:35;;;;;;;36.60;17.45;;;12.60;72.00;;;;;;5023622;28;20029;-72
2022/04/29 05:36:03;;;;;;;34.50;16.48;;;12.70;72.30;;;;;;5027373;28;20048;-73
2022/04/29 05:42:14;;;;;;;36.83;16.63;;;12.70;72.10;;;;;;5016829;28;20022;-73
2022/04/29 05:43:59;;;;;;;33.00;17.25;;;12.80;71.70;;;;;;5012445;28;20057;-72
2022/04/29 05:46:25;;;;;;;32.08;17.50;;;12.90;72.10;;;;;;5012970;28;20604;-70
2022/04/29 05:48:51;;;;;;;30.30;17.33;;;12.90;72.20;;;;;;5021658;28;20075;-71
2022/04/29 05:51:17;;;;;;;29.30;17.45;;;13.00;72.30;;;;;;5026437;28;20017;-70
2022/04/29 05:53:42;;;;;;;31.45;18.08;;;13.20;72.40;;;;;;5024851;28;20041;-70
2022/04/29 05:56:10;;;;;;;34.40;18.52;;;13.30;72.80;;;;;;5020960;28;20048;-71
2022/04/29 05:58:36;;;;;;;35.15;18.05;;;13.50;73.30;;;;;;5014548;28;20058;-71
2022/04/29 06:01:05;;;;;;;37.55;20.27;;;13.60;73.30;;;;;;5027325;28;20481;-70
2022/04/29 06:03:31;;;;;;;41.80;19.85;;;13.70;73.50;;;;;;5024322;28;20037;-71
2022/04/29 06:05:57;;;;;;;38.40;19.23;;;13.80;73.70;;;;;;5025891;28;20484;-71
2022/04/29 06:08:23;;;;;;;41.85;19.77;;;13.90;73.80;;;;;;5028271;28;20033;-70
2022/04/29 06:10:49;;;;;;;35.90;19.42;;;13.90;73.80;;;;;;5026293;28;20025;-71
2022/04/29 06:13:14;;;;;;;36.90;19.50;;;14.00;73.60;;;;;;5017847;28;20034;-71
2022/04/29 06:15:40;;;;;;;33.92;20.42;;;14.10;73.40;;;;;;5027338;28;20404;-71
2022/04/29 06:18:06;;;;;;;38.83;19.92;;;14.20;73.30;;;;;;5019479;28;20037;-71
2022/04/29 06:20:32;;;;;;;38.17;19.95;;;14.30;73.10;;;;;;5023678;28;20029;-71
2022/04/29 06:22:58;;;;;;;38.65;20.88;;;14.40;73.80;;;;;;5026748;28;20025;-71
2022/04/29 06:25:24;;;;;;;36.00;21.25;;;14.40;73.10;;;;;;5035709;28;20476;-71
2022/04/29 06:27:50;;;;;;;42.58;21.73;;;14.40;73.40;;;;;;5025438;28;20079;-71
2022/04/29 06:30:16;;;;;;;38.65;20.85;;;14.30;73.70;;;;;;5016848;28;20095;-71
2022/04/29 06:32:42;;;;;;;37.75;20.55;;;14.80;71.60;;;;;;5020263;28;20641;-71
2022/04/29 06:35:09;;;;;;;41.00;21.67;;;15.70;66.80;;;;;;5021777;28;20079;-71
2022/04/29 06:37:35;;;;;;;41.92;21.77;;;16.50;63.80;;;;;;5023332;28;20030;-71
2022/04/29 06:40:02;;;;;;;42.10;22.00;;;17.10;61.90;;;;;;5026236;28;20065;-70
2022/04/29 06:42:28;;;;;;;36.95;22.42;;;17.50;60.60;;;;;;5024943;28;20110;-71
2022/04/29 06:44:54;;;;;;;43.58;22.60;;;17.90;59.40;;;;;;5022456;28;20164;-71
2022/04/29 06:47:19;;;;;;;42.17;22.60;;;18.30;58.50;;;;;;5018964;28;20049;-71
2022/04/29 06:49:45;;;;;;;45.33;23.23;;;18.70;57.10;;;;;;5017906;28;20038;-71
2022/04/29 06:52:11;;;;;;;42.08;23.63;;;19.00;56.20;;;;;;5021193;28;20303;-71
2022/04/29 06:54:37;;;;;;;41.35;23.90;;;19.40;55.20;;;;;;5027456;28;20034;-71
2022/04/29 06:57:04;;;;;;;40.55;23.40;;;19.70;53.90;;;;;;5024218;28;20036;-70
2022/04/29 06:59:30;;;;;;;39.13;23.20;;;19.80;53.60;;;;;;5026705;28;20037;-71
2022/04/29 07:01:55;;;;;;;40.22;23.60;;;19.80;53.90;;;;;;5024233;28;20033;-71
2022/04/29 07:04:25;;;;;;;37.58;23.20;;;19.80;54.20;;;;;;5026197;28;20041;-70
2022/04/29 07:06:54;;;;;;;42.35;24.00;;;19.80;54.50;;;;;;5022681;28;20456;-73
2022/04/29 07:09:20;;;;;;;40.38;24.02;;;19.70;55.70;;;;;;5032059;28;20037;-71
2022/04/29 07:11:45;;;;;;;41.10;24.30;;;19.60;56.60;;;;;;5017762;28;20491;-71
2022/04/29 07:14:13;;;;;;;34.45;23.17;;;19.60;56.70;;;;;;5020265;28;20540;-72
2022/04/29 07:16:40;;;;;;;40.17;23.50;;;19.60;56.50;;;;;;5024298;28;20029;-71
2022/04/29 07:19:06;;;;;;;37.08;22.77;;;19.40;56.70;;;;;;5025486;28;20156;-71
2022/04/29 07:21:32;;;;;;;40.22;23.50;;;19.40;56.70;;;;;;5031462;28;20116;-71
2022/04/29 07:23:59;;;;;;;38.78;22.92;;;19.50;56.40;;;;;;5026380;28;20029;-71
2022/04/29 07:26:25;;;;;;;37.40;23.45;;;19.70;55.80;;;;;;5024855;28;20072;-71
2022/04/29 07:28:51;;;;;;;39.67;23.02;;;19.80;55.50;;;;;;5025448;28;20120;-71
2022/04/29 07:31:17;;;;;;;38.83;23.23;;;20.10;54.50;;;;;;5021805;28;20064;-71
2022/04/29 07:33:42;;;;;;;36.17;22.08;;;20.30;53.70;;;;;;5019591;28;20033;-71
2022/04/29 07:41:45;;;;;;;41.45;23.08;;;20.90;52.20;;;;;;5023293;28;20041;-70
2022/04/29 07:44:12;;;;;;;36.75;23.58;;;21.20;51.30;;;;;;5018709;28;20041;-71
2022/04/29 07:46:39;;;;;;;39.63;23.52;;;21.40;50.60;;;;;;5034016;28;20021;-71
2022/04/29 07:49:05;;;;;;;39.30;23.38;;;21.70;49.70;;;;;;5029480;28;20033;-70
2022/04/29 07:51:31;;;;;;;41.03;25.15;;;21.90;48.90;;;;;;5038488;28;20117;-72
2022/04/29 07:53:57;;;;;;;35.13;23.90;;;22.10;47.00;;;;;;5019112;28;20061;-70
2022/04/29 07:56:23;;;;;;;36.95;23.45;;;22.20;46.30;;;;;;5035224;28;20029;-70
2022/04/29 07:58:49;;;;;;;37.30;24.48;;;22.30;46.70;;;;;;5018843;28;20033;-70
2022/04/29 08:01:16;;;;;;;38.05;24.48;;;22.50;45.30;;;;;;5029552;28;20022;-71
2022/04/29 08:03:42;;;;;;;39.17;24.20;;;22.70;44.80;;;;;;5024587;28;20083;-71
2022/04/29 08:06:08;;;;;;;36.92;24.30;;;22.70;43.70;;;;;;5015944;28;20041;-71
2022/04/29 08:08:35;;;;;;;33.05;22.52;;;22.70;43.40;;;;;;5030885;28;20499;-70
2022/04/29 08:11:01;;;;;;;36.00;22.38;;;22.80;43.50;;;;;;5018710;28;20029;-71
2022/04/29 08:13:28;;;;;;;35.70;23.88;;;23.50;42.30;;;;;;5026095;28;20374;-71
2022/04/29 08:15:54;;;;;;;32.97;23.02;;;24.40;40.30;;;;;;5032379;28;20040;-71
2022/04/29 08:18:20;;;;;;;33.55;21.98;;;25.20;38.30;;;;;;5016662;28;20034;-71
2022/04/29 08:20:46;;;;;;;34.83;22.77;;;26.20;36.40;;;;;;5022671;28;20080;-72
2022/04/29 08:23:12;;;;;;;33.60;23.20;;;27.20;34.10;;;;;;5013547;28;20025;-71
2022/04/29 08:25:37;;;;;;;31.45;22.33;;;28.20;31.20;;;;;;5025530;28;20036;-71
2022/04/29 08:28:04;;;;;;;32.28;22.40;;;29.00;29.80;;;;;;5024208;28;20077;-70
2022/04/29 08:30:31;;;;;;;35.05;24.95;;;29.30;29.00;;;;;;5012658;28;20421;-71
2022/04/29 08:32:59;;;;;;;32.33;22.30;;;29.90;28.30;;;;;;5014421;28;20080;-70
2022/04/29 08:35:25;;;;;;;30.33;22.08;;;29.80;28.40;;;;;;5013996;28;20030;-70
2022/04/29 08:37:51;;;;;;;35.45;22.92;;;29.90;28.00;;;;;;5024266;28;20029;-70
2022/04/29 08:40:17;;;;;;;29.17;21.35;;;30.30;27.50;;;;;;5026006;28;20014;-70
2022/04/29 08:42:43;;;;;;;32.15;22.40;;;30.50;27.50;;;;;;5026628;28;20548;-70
2022/04/29 08:45:10;;;;;;;32.58;22.40;;;30.50;27.00;;;;;;5025646;28;20121;-71
2022/04/29 08:47:38;;;;;;;28.13;20.63;;;30.30;27.70;;;;;;5049019;28;20041;-70
2022/04/29 08:50:15;;;;;;;32.08;22.77;;;30.20;27.80;;;;;;5013492;28;20030;-71
2022/04/29 08:52:43;;;;;;;30.58;22.10;;;29.80;28.10;;;;;;5022467;28;20065;-71
2022/04/29 09:00:45;;;;;;;29.00;21.60;;;29.80;28.50;;;;;;5029226;28;20047;-71
2022/04/29 09:03:13;;;;;;;28.98;22.08;;;29.90;28.20;;;;;;5025591;28;20026;-72
2022/04/29 09:05:39;;;;;;;36.03;23.58;;;28.40;30.00;;;;;;5027951;28;20029;-72
2022/04/29 09:08:05;;;;;;;32.20;22.98;;;27.30;31.60;;;;;;5017876;28;20022;-71
2022/04/29 09:10:35;;;;;;;33.67;22.25;;;26.50;32.90;;;;;;5015671;28;20064;-71
2022/04/29 09:13:16;;;;;;;32.10;22.83;;;26.00;34.00;;;;;;5016017;28;20056;-72
2022/04/29 09:15:54;;;;;;;34.25;21.88;;;25.90;34.50;;;;;;5028751;28;20504;-70
2022/04/29 09:18:46;;;;;;;31.17;21.80;;;25.80;35.20;;;;;;5026011;28;20144;-71
2022/04/29 09:21:15;;;;;;;34.50;22.50;;;25.80;35.70;;;;;;5025377;28;20128;-71
2022/04/29 09:23:55;;;;;;;34.95;22.73;;;25.60;36.10;;;;;;5020472;28;20041;-71
2022/04/29 09:26:20;;;;;;;31.98;22.63;;;25.50;36.80;;;;;;5014629;28;20566;-70
2022/04/29 09:28:47;;;;;;;33.63;22.70;;;25.50;37.40;;;;;;5016039;28;20037;-71
2022/04/29 09:31:14;;;;;;;30.95;23.25;;;25.50;37.30;;;;;;5012663;28;20033;-71
2022/04/29 09:33:51;;;;;;;30.58;22.83;;;25.60;36.10;;;;;;5015407;28;20037;-71
2022/04/29 09:36:25;;;;;;;36.72;23.20;;;25.50;36.10;;;;;;5010011;28;20029;-71
2022/04/29 09:41:55;;;;;;;28.27;21.67;;;25.60;36.70;;;;;;5009285;28;20044;-71
2022/04/29 09:44:29;;;;;;;35.40;22.05;;;25.80;36.80;;;;;;5018031;28;20056;-71
2022/04/29 09:46:55;;;;;;;33.78;23.55;;;26.00;36.60;;;;;;5026819;28;20039;-70
2022/04/29 09:49:27;;;;;;;31.60;22.80;;;26.20;35.80;;;;;;5012163;28;20528;-70
2022/04/29 09:51:53;;;;;;;29.90;23.00;;;26.20;36.10;;;;;;5019069;28;20091;-71
2022/04/29 09:54:31;;;;;;;33.25;22.98;;;26.20;36.30;;;;;;5013882;28;20034;-71
2022/04/29 09:57:13;;;;;;;33.70;23.15;;;26.20;36.50;;;;;;5022741;28;20030;-71
2022/04/29 09:59:49;;;;;;;33.22;23.20;;;26.30;36.30;;;;;;5024944;28;20485;-71
2022/04/29 10:02:17;;;;;;;31.88;23.58;;;26.50;35.80;;;;;;5013291;28;20436;-71
2022/04/29 10:04:45;;;;;;;33.70;22.75;;;26.70;35.60;;;;;;5018074;28;20059;-71
2022/04/29 10:07:13;;;;;;;30.90;22.35;;;26.90;35.10;;;;;;5019269;28;20088;-71
2022/04/29 10:09:41;;;;;;;31.90;22.77;;;27.00;35.00;;;;;;5023208;28;20489;-71
2022/04/29 10:12:15;;;;;;;37.28;23.77;;;27.10;34.40;;;;;;5019279;28;20038;-70
2022/04/29 10:14:43;;;;;;;32.78;22.92;;;27.20;34.20;;;;;;5011790;28;20037;-71
2022/04/29 10:22:55;;;;;;;31.17;23.63;;;27.40;33.80;;;;;;5015561;28;20036;-71
2022/04/29 10:25:28;;;;;;;32.03;23.15;;;27.50;33.90;;;;;;5010125;28;20038;-70
2022/04/29 10:27:54;;;;;;;32.65;23.92;;;27.70;34.10;;;;;;5021311;28;20025;-71
2022/04/29 10:30:37;;;;;;;36.08;25.70;;;27.90;33.60;;;;;;5017874;28;20025;-71
2022/04/29 10:33:08;;;;;;;33.47;23.48;;;28.20;32.60;;;;;;5029304;28;20447;-71
2022/04/29 10:35:39;;;;;;;32.75;23.70;;;28.20;32.80;;;;;;5025155;28;20034;-71
2022/04/29 10:38:39;;;;;;;35.05;25.05;;;28.20;32.40;;;;;;5019323;28;20026;-71
2022/04/29 10:41:09;;;;;;;31.13;23.23;;;28.40;32.50;;;;;;5022074;28;20080;-71
2022/04/29 10:43:50;;;;;;;31.50;23.35;;;28.50;32.20;;;;;;5011794;28;20045;-71
2022/04/29 10:46:15;;;;;;;35.35;24.40;;;28.70;31.80;;;;;;5022964;28;20113;-71
2022/04/29 10:48:42;;;;;;;33.50;23.67;;;28.90;30.60;;;;;;5027995;28;20094;-71
2022/04/29 10:51:31;;;;;;;32.70;24.65;;;29.00;31.00;;;;;;5025154;28;20716;-70
2022/04/29 10:53:58;;;;;;;33.58;23.38;;;28.90;30.40;;;;;;4964842;28;20538;-71
2022/04/29 10:56:30;;;;;;;31.65;24.02;;;28.80;30.90;;;;;;4966281;28;20502;-71
2022/04/29 10:59:14;;;;;;;34.50;24.08;;;28.90;30.90;;;;;;4964354;28;20078;-71
2022/04/29 11:01:47;;;;;;;30.10;22.42;;;28.90;31.10;;;;;;4965575;28;20034;-71
2022/04/29 11:04:15;;;;;;;33.33;24.58;;;29.00;31.00;;;;;;4961074;28;20119;-71
2022/04/29 11:06:46;;;;;;;30.45;22.58;;;29.20;31.10;;;;;;4968081;28;20031;-71
2022/04/29 11:09:25;;;;;;;36.38;24.92;;;29.40;30.40;;;;;;4967482;28;20130;-71
2022/04/29 11:11:52;;;;;;;31.02;25.10;;;29.60;29.80;;;;;;4966524;28;20125;-71
2022/04/29 11:14:18;;;;;;;33.83;24.77;;;29.70;29.40;;;;;;4964368;28;20031;-71
2022/04/29 11:16:58;;;;;;;34.03;24.27;;;29.50;29.80;;;;;;4971345;28;20711;-71
2022/04/29 11:19:28;;;;;;;31.27;22.65;;;29.60;29.90;;;;;;4969394;28;20031;-71
2022/04/29 11:24:47;;;;;;;28.67;21.85;;;30.00;29.80;;;;;;4972294;28;20141;-71
2022/04/29 11:27:14;;;;;;;28.17;22.20;;;30.30;28.50;;;;;;4984837;28;20030;-71
2022/04/29 11:29:44;;;;;;;27.77;21.20;;;30.40;27.90;;;;;;4976049;28;20113;-71
2022/04/29 11:32:11;;;;;;;32.20;24.00;;;30.40;28.20;;;;;;5022037;28;20029;-71
2022/04/29 11:34:58;;;;;;;30.15;23.25;;;30.40;27.90;;;;;;5025833;28;20065;-72
2022/04/29 11:37:28;;;;;;;31.08;24.05;;;30.30;28.10;;;;;;5023410;28;20034;-72
2022/04/29 11:40:05;;;;;;;31.52;23.02;;;30.30;28.80;;;;;;5027797;28;20116;-72
2022/04/29 11:42:31;;;;;;;30.85;23.90;;;30.50;28.40;;;;;;5016761;28;20508;-72
2022/04/29 11:45:23;;;;;;;30.08;24.20;;;30.60;28.10;;;;;;5023355;28;20091;-72
2022/04/29 11:47:50;;;;;;;33.17;24.52;;;30.80;28.10;;;;;;5016768;28;20419;-72
2022/04/29 11:50:16;;;;;;;30.98;24.27;;;30.90;27.70;;;;;;5011541;28;20018;-72
2022/04/29 11:52:41;;;;;;;35.33;25.55;;;31.10;27.80;;;;;;5014508;28;20052;-71
2022/04/29 11:55:13;;;;;;;28.50;23.67;;;31.40;27.20;;;;;;5010610;28;20029;-71
2022/04/29 11:57:47;;;;;;;25.38;22.40;;;31.60;27.40;;;;;;5013400;28;20124;-72
2022/04/29 12:00:25;;;;;;;29.45;23.00;;;32.00;26.70;;;;;;5019505;28;20108;-71
2022/04/29 12:02:52;;;;;;;31.75;24.95;;;32.50;26.30;;;;;;5018608;28;20520;-72
2022/04/29 12:05:28;;;;;;;32.15;24.35;;;33.00;25.40;;;;;;5028062;28;20041;-71
2022/04/29 12:08:02;;;;;;;29.05;23.63;;;33.30;24.80;;;;;;5023542;28;20026;-71
2022/04/29 12:10:31;;;;;;;30.90;22.67;;;33.70;24.20;;;;;;5012432;28;20105;-71
2022/04/29 12:13:01;;;;;;;29.25;23.35;;;34.10;24.00;;;;;;5014066;28;20057;-71
2022/04/29 12:15:30;;;;;;;28.45;23.10;;;34.50;24.00;;;;;;5016193;28;20026;-71
2022/04/29 12:18:03;;;;;;;30.20;23.20;;;34.80;22.90;;;;;;5014065;28;20076;-71
2022/04/29 12:20:30;;;;;;;24.60;21.70;;;35.00;22.50;;;;;;5022692;28;20025;-71
2022/04/29 12:23:11;;;;;;;30.48;22.63;;;35.20;22.80;;;;;;5013828;28;20108;-71
2022/04/29 12:25:42;;;;;;;30.50;23.35;;;34.50;23.00;;;;;;5018435;28;20116;-71
2022/04/29 12:28:11;;;;;;;29.00;21.65;;;34.90;22.50;;;;;;5014459;28;20032;-71
2022/04/29 12:36:14;;;;;;;29.92;20.35;;;35.80;22.70;;;;;;5020039;28;20141;-71
2022/04/29 12:38:42;;;;;;;25.45;20.95;;;35.80;22.60;;;;;;5028187;28;20029;-70
2022/04/29 12:41:22;;;;;;;26.17;19.40;;;34.70;23.60;;;;;;5024855;28;20057;-71
2022/04/29 12:43:48;;;;;;;24.13;18.95;;;35.30;22.40;;;;;;5023432;28;20109;-72
2022/04/29 12:46:15;;;;;;;25.77;20.02;;;36.00;22.10;;;;;;5025552;28;20029;-72
2022/04/29 12:48:51;;;;;;;26.23;19.42;;;36.30;21.70;;;;;;5013354;28;20026;-72
2022/04/29 12:51:24;;;;;;;26.40;20.75;;;34.40;22.60;;;;;;5017051;28;20037;-71
2022/04/29 12:53:50;;;;;;;26.92;19.80;;;33.30;23.50;;;;;;5021416;28;20673;-71
2022/04/29 12:56:23;;;;;;;24.50;18.48;;;33.60;23.90;;;;;;5024281;28;20040;-72
2022/04/29 12:58:49;;;;;;;26.38;19.27;;;34.60;22.70;;;;;;5028073;28;20492;-72
2022/04/29 13:01:15;;;;;;;20.55;16.05;;;35.30;22.10;;;;;;5026892;28;20032;-72
2022/04/29 13:03:41;;;;;;;23.73;17.08;;;35.30;21.90;;;;;;5025398;28;20477;-72